Maersk Drummond — A8JF3 — position and weather

sailwx.info

Track history (hours):
 
Tides and Currents Weather Stations Pressure Air Temp Water Temp Dewpoint Dewpoint Depression Visibility Wind Speed Wind Dir Waves Ship Positions

Maersk Drummond

Last reported at 2017-Mar-27 06:19 UTC. Time now 2017-Mar-28 08:10 UTC.
Position N 38°33' W 123°54'.

Length 294 m; draft 9.9 m.

Type: Ship (hazmat cat A). MMSI: 636091082.

Date/timePositionNaut miles runAvg speedWind from/ knotsBaromVisibWave heightAir tempDewpointWater temp
2017-Mar-27 06:19N 38°33' W 123°54'911.5
2017-Mar-27 05:33N 38°27' W 123°45'1111.4
2017-Mar-27 04:34N 38°20' W 123°34'1111.4
2017-Mar-27 03:33N 38°12' W 123°24'1211.7
2017-Mar-27 02:34N 38°03' W 123°14'1211.7
2017-Mar-27 01:33N 37°56' W 123°02'1212.5
2017-Mar-27 00:33N 37°50' W 122°49'1212.2
2017-Mar-26 23:33N 37°47' W 122°33'1111.2
2017-Mar-26 22:33N 37°48' W 122°19'0 0.0
2017-Mar-26 21:33N 37°48' W 122°19'0 0.0
2017-Mar-26 20:33N 37°48' W 122°19'0 0.0
2017-Mar-26 19:33N 37°48' W 122°19'0 0.0
2017-Mar-26 18:33N 37°48' W 122°19'0 0.0
2017-Mar-26 17:33N 37°48' W 122°19'0 0.0
2017-Mar-26 16:33N 37°48' W 122°19'0 0.0
2017-Mar-26 15:33N 37°48' W 122°19'0 0.0
2017-Mar-26 14:33N 37°48' W 122°19'0 0.0
2017-Mar-26 13:33N 37°48' W 122°19'1 1.3
2017-Mar-26 12:33N 37°48' W 122°18'7 7.3
2017-Mar-26 11:33N 37°49' W 122°27'1211.7
2017-Mar-26 10:33N 37°44' W 122°40'1010.2
2017-Mar-26 09:33N 37°34' W 122°40'1515.4
2017-Mar-26 08:33N 37°18' W 122°40'1515.3
2017-Mar-26 07:33N 37°03' W 122°36'1816.1
2017-Mar-26 06:26N 36°47' W 122°27'1416.4
2017-Mar-26 05:33N 36°33' W 122°20'1616.2
2017-Mar-26 04:33N 36°18' W 122°13'1616.5
2017-Mar-26 03:33N 36°04' W 122°03'1717.1
2017-Mar-26 02:33N 35°49' W 121°52'1817.1
2017-Mar-26 01:31N 35°34' W 121°41'1616.7
2017-Mar-26 00:33N 35°20' W 121°31'1616.2
2017-Mar-25 23:33N 35°06' W 121°21'1615.8
2017-Mar-25 22:33N 34°53' W 121°11'1616.3
2017-Mar-25 21:33N 34°38' W 121°01'1616.0
2017-Mar-25 20:33N 34°26' W 120°50'1716.7
2017-Mar-25 19:30N 34°21' W 120°29'1715.9
2017-Mar-25 18:28N 34°17' W 120°10'1515.5
2017-Mar-25 17:30N 34°12' W 119°53'1615.5
2017-Mar-25 16:30N 34°08' W 119°34'1515.7
2017-Mar-25 15:33N 34°04' W 119°17'1514.9
2017-Mar-25 14:33N 33°58' W 119°01'1211.7
2017-Mar-25 13:33N 33°52' W 118°49'1212.1
2017-Mar-25 12:33N 33°46' W 118°36'1211.6
2017-Mar-25 11:32N 33°40' W 118°24'8 8.0
2017-Mar-25 10:33N 33°42' W 118°15'3 1.0
2017-Mar-25 07:27N 33°46' W 118°15'0 0.0
2017-Mar-25 06:24N 33°46' W 118°15'0 0.0
2017-Mar-25 05:06N 33°46' W 118°15'0 0.0
2017-Mar-25 04:30N 33°46' W 118°15'0 0.0
2017-Mar-25 03:33N 33°46' W 118°15'0 0.0
2017-Mar-25 02:30N 33°46' W 118°15'0 0.0
2017-Mar-25 01:33N 33°46' W 118°15'0 0.0
2017-Mar-25 00:33N 33°46' W 118°15'0 0.0
2017-Mar-24 23:33N 33°46' W 118°15'0 0.0
2017-Mar-24 22:30N 33°46' W 118°15'0 0.0
2017-Mar-24 21:33N 33°46' W 118°15'0 0.0
2017-Mar-24 20:21N 33°46' W 118°15'0 0.0
2017-Mar-24 19:30N 33°46' W 118°15'0 0.0
2017-Mar-24 14:30N 33°46' W 118°15'0 0.0
2017-Mar-24 13:30N 33°46' W 118°15'0 0.0
2017-Mar-24 12:30N 33°46' W 118°15'0 0.0
2017-Mar-24 11:30N 33°46' W 118°15'0 0.0
2017-Mar-24 10:33N 33°46' W 118°15'0 0.0
2017-Mar-24 09:30N 33°46' W 118°15'0 0.0
2017-Mar-24 07:30N 33°46' W 118°15'0 0.0
2017-Mar-23 22:24N 33°46' W 118°15'0 0.0
2017-Mar-23 21:30N 33°46' W 118°15'0 0.0
2017-Mar-23 14:13N 33°46' W 118°16'3 4.0
2017-Mar-23 13:33N 33°43' W 118°16'3 2.5
2017-Mar-23 12:31N 33°42' W 118°13'0 0.1
2017-Mar-23 11:31N 33°42' W 118°13'0 0.0
2017-Mar-23 10:31N 33°42' W 118°13'0 0.0
2017-Mar-23 09:31N 33°42' W 118°13'0 0.1
2017-Mar-23 08:13N 33°42' W 118°13'0 0.0
2017-Mar-23 07:19N 33°42' W 118°13'0 0.1
2017-Mar-23 06:25N 33°42' W 118°13'0 0.1
2017-Mar-23 05:25N 33°42' W 118°13'0 0.1
2017-Mar-23 04:25N 33°42' W 118°13'0 0.0
2017-Mar-23 03:25N 33°42' W 118°13'0 0.0
2017-Mar-23 02:13N 33°42' W 118°13'0 0.0
2017-Mar-23 01:25N 33°42' W 118°13'0 0.0
2017-Mar-23 00:19N 33°42' W 118°13'0 0.0
2017-Mar-22 23:33N 33°42' W 118°13'6 5.6
2017-Mar-22 22:33N 33°37' W 118°15'10 9.8
2017-Mar-22 21:33N 33°39' W 118°27'1110.6
2017-Mar-22 20:33N 33°44' W 118°38'1110.9
2017-Mar-22 19:33N 33°50' W 118°50'1110.6
2017-Mar-22 18:32N 33°55' W 119°01'1010.6
2017-Mar-22 17:33N 34°00' W 119°12'1110.7
2017-Mar-22 16:32N 34°04' W 119°24'1918.6
2017-Mar-22 15:32N 34°09' W 119°45'1918.9
2017-Mar-22 14:32N 34°14' W 120°08'1818.4
2017-Mar-22 13:33N 34°19' W 120°28'1818.4
2017-Mar-22 12:33N 34°24' W 120°50'1918.7
2017-Mar-22 11:33N 34°30' W 121°11'1818.5
2017-Mar-22 10:33N 34°37' W 121°32'10218.6
2017-Mar-22 05:05N 35°12' W 123°29'1119.0
2017-Mar-22 04:31N 35°15' W 123°41'2218.9
2017-Mar-22 03:22N 35°23' W 124°06'  
Track history (hours):
 
Tides and Currents Weather Stations Pressure Air Temp Water Temp Dewpoint Dewpoint Depression Visibility Wind Speed Wind Dir Waves Ship Positions

Maersk Drummond

Last reported at 2017-Mar-27 06:19 UTC. Time now 2017-Mar-28 08:10 UTC.
Position N 38°33' W 123°54'.

Length 294 m; draft 9.9 m.

Type: Ship (hazmat cat A). MMSI: 636091082.

Date/timePositionNaut miles runAvg speedWind from/ knotsBaromVisibWave heightAir tempDewpointWater temp
2017-Mar-27 06:19N 38°33' W 123°54'911.5
2017-Mar-27 05:33N 38°27' W 123°45'1111.4
2017-Mar-27 04:34N 38°20' W 123°34'1111.4
2017-Mar-27 03:33N 38°12' W 123°24'1211.7
2017-Mar-27 02:34N 38°03' W 123°14'1211.7
2017-Mar-27 01:33N 37°56' W 123°02'1212.5
2017-Mar-27 00:33N 37°50' W 122°49'1212.2
2017-Mar-26 23:33N 37°47' W 122°33'1111.2
2017-Mar-26 22:33N 37°48' W 122°19'0 0.0
2017-Mar-26 21:33N 37°48' W 122°19'0 0.0
2017-Mar-26 20:33N 37°48' W 122°19'0 0.0
2017-Mar-26 19:33N 37°48' W 122°19'0 0.0
2017-Mar-26 18:33N 37°48' W 122°19'0 0.0
2017-Mar-26 17:33N 37°48' W 122°19'0 0.0
2017-Mar-26 16:33N 37°48' W 122°19'0 0.0
2017-Mar-26 15:33N 37°48' W 122°19'0 0.0
2017-Mar-26 14:33N 37°48' W 122°19'0 0.0
2017-Mar-26 13:33N 37°48' W 122°19'1 1.3
2017-Mar-26 12:33N 37°48' W 122°18'7 7.3
2017-Mar-26 11:33N 37°49' W 122°27'1211.7
2017-Mar-26 10:33N 37°44' W 122°40'1010.2
2017-Mar-26 09:33N 37°34' W 122°40'1515.4
2017-Mar-26 08:33N 37°18' W 122°40'1515.3
2017-Mar-26 07:33N 37°03' W 122°36'1816.1
2017-Mar-26 06:26N 36°47' W 122°27'1416.4
2017-Mar-26 05:33N 36°33' W 122°20'1616.2
2017-Mar-26 04:33N 36°18' W 122°13'1616.5
2017-Mar-26 03:33N 36°04' W 122°03'1717.1
2017-Mar-26 02:33N 35°49' W 121°52'1817.1
2017-Mar-26 01:31N 35°34' W 121°41'1616.7
2017-Mar-26 00:33N 35°20' W 121°31'1616.2
2017-Mar-25 23:33N 35°06' W 121°21'1615.8
2017-Mar-25 22:33N 34°53' W 121°11'1616.3
2017-Mar-25 21:33N 34°38' W 121°01'1616.0
2017-Mar-25 20:33N 34°26' W 120°50'1716.7
2017-Mar-25 19:30N 34°21' W 120°29'1715.9
2017-Mar-25 18:28N 34°17' W 120°10'1515.5
2017-Mar-25 17:30N 34°12' W 119°53'1615.5
2017-Mar-25 16:30N 34°08' W 119°34'1515.7
2017-Mar-25 15:33N 34°04' W 119°17'1514.9
2017-Mar-25 14:33N 33°58' W 119°01'1211.7
2017-Mar-25 13:33N 33°52' W 118°49'1212.1
2017-Mar-25 12:33N 33°46' W 118°36'1211.6
2017-Mar-25 11:32N 33°40' W 118°24'8 8.0
2017-Mar-25 10:33N 33°42' W 118°15'3 1.0
2017-Mar-25 07:27N 33°46' W 118°15'0 0.0
2017-Mar-25 06:24N 33°46' W 118°15'0 0.0
2017-Mar-25 05:06N 33°46' W 118°15'0 0.0
2017-Mar-25 04:30N 33°46' W 118°15'0 0.0
2017-Mar-25 03:33N 33°46' W 118°15'0 0.0
2017-Mar-25 02:30N 33°46' W 118°15'0 0.0
2017-Mar-25 01:33N 33°46' W 118°15'0 0.0
2017-Mar-25 00:33N 33°46' W 118°15'0 0.0
2017-Mar-24 23:33N 33°46' W 118°15'0 0.0
2017-Mar-24 22:30N 33°46' W 118°15'0 0.0
2017-Mar-24 21:33N 33°46' W 118°15'0 0.0
2017-Mar-24 20:21N 33°46' W 118°15'0 0.0
2017-Mar-24 19:30N 33°46' W 118°15'0 0.0
2017-Mar-24 14:30N 33°46' W 118°15'0 0.0
2017-Mar-24 13:30N 33°46' W 118°15'0 0.0
2017-Mar-24 12:30N 33°46' W 118°15'0 0.0
2017-Mar-24 11:30N 33°46' W 118°15'0 0.0
2017-Mar-24 10:33N 33°46' W 118°15'0 0.0
2017-Mar-24 09:30N 33°46' W 118°15'0 0.0
2017-Mar-24 07:30N 33°46' W 118°15'0 0.0
2017-Mar-23 22:24N 33°46' W 118°15'0 0.0
2017-Mar-23 21:30N 33°46' W 118°15'0 0.0
2017-Mar-23 14:13N 33°46' W 118°16'3 4.0
2017-Mar-23 13:33N 33°43' W 118°16'3 2.5
2017-Mar-23 12:31N 33°42' W 118°13'0 0.1
2017-Mar-23 11:31N 33°42' W 118°13'0 0.0
2017-Mar-23 10:31N 33°42' W 118°13'0 0.0
2017-Mar-23 09:31N 33°42' W 118°13'0 0.1
2017-Mar-23 08:13N 33°42' W 118°13'0 0.0
2017-Mar-23 07:19N 33°42' W 118°13'0 0.1
2017-Mar-23 06:25N 33°42' W 118°13'0 0.1
2017-Mar-23 05:25N 33°42' W 118°13'0 0.1
2017-Mar-23 04:25N 33°42' W 118°13'0 0.0
2017-Mar-23 03:25N 33°42' W 118°13'0 0.0
2017-Mar-23 02:13N 33°42' W 118°13'0 0.0
2017-Mar-23 01:25N 33°42' W 118°13'0 0.0
2017-Mar-23 00:19N 33°42' W 118°13'0 0.0
2017-Mar-22 23:33N 33°42' W 118°13'6 5.6
2017-Mar-22 22:33N 33°37' W 118°15'10 9.8
2017-Mar-22 21:33N 33°39' W 118°27'1110.6
2017-Mar-22 20:33N 33°44' W 118°38'1110.9
2017-Mar-22 19:33N 33°50' W 118°50'1110.6
2017-Mar-22 18:32N 33°55' W 119°01'1010.6
2017-Mar-22 17:33N 34°00' W 119°12'1110.7
2017-Mar-22 16:32N 34°04' W 119°24'1918.6
2017-Mar-22 15:32N 34°09' W 119°45'1918.9
2017-Mar-22 14:32N 34°14' W 120°08'1818.4
2017-Mar-22 13:33N 34°19' W 120°28'1818.4
2017-Mar-22 12:33N 34°24' W 120°50'1918.7
2017-Mar-22 11:33N 34°30' W 121°11'1818.5
2017-Mar-22 10:33N 34°37' W 121°32'10218.6
2017-Mar-22 05:05N 35°12' W 123°29'1119.0
2017-Mar-22 04:31N 35°15' W 123°41'2218.9
2017-Mar-22 03:22N 35°23' W 124°06'  

Dump ship's entire track history